3/22/2025 2025 Moonlight Run 6K/10K - Mar. 22/2025 Overall Gender Results
10K Run - 6.21 Miles 588 Finishers
Female 274 Finishers
Gen/Pl Name Bib# Time Pace/K Pace/M Cat OA/Pl Cat/Pl Offset
1/274 FEHR, EMMA 246 43:45.994 04:22 07:02 10K35-39F 31/588 1/39 +00:00:00
2/274 BURGESS, NICOLE 158 44:02.048 04:24 07:05 10K16-19F 34/588 1/12 +00:00:16
3/274 PIZARRO, LAURA 497 44:23.048 04:26 07:08 10K16-19F 37/588 2/12 +00:00:37
4/274 LEPKO, JAYCIE 394 44:45.312 04:28 07:12 10K12-15F 43/588 1/6 +00:00:59
5/274 PADDICK, KESHIA 482 44:55.531 04:29 07:14 10K30-34F 45/588 1/51 +00:01:09
6/274 VOGEL, CAYLEE 730 45:05.281 04:30 07:15 10K30-34F 46/588 2/51 +00:01:19
7/274 LAMMERS-POTTAGE, ANDREA 381 45:33.125 04:33 07:20 10K40-44F 50/588 1/37 +00:01:47
8/274 LOW, JENNIE 406 45:41.586 04:34 07:21 10K40-44F 53/588 2/37 +00:01:55
9/274 EJACK, LEANNE 234 45:48.687 04:34 07:22 10K35-39F 58/588 2/39 +00:02:02
10/274 HASLAM, JANAE 309 45:54.077 04:35 07:23 10K40-44F 62/588 3/37 +00:02:08
11/274 CHRAPKO, MACKENZIE 182 46:20.374 04:38 07:27 10K25-29F 66/588 1/48 +00:02:34
12/274 GORSLINE, ALEXIS 282 47:14.209 04:43 07:36 10K20-24F 78/588 1/39 +00:03:28
13/274 MCKEE, KYRAN 432 48:20.395 04:50 07:47 10K30-34F 93/588 3/51 +00:04:34
14/274 CROSS CHILD, CELESTE 701 48:40.834 04:52 07:50 10K45-49F 97/588 1/12 +00:04:54
15/274 KELLEWAY, SERENA 353 48:41.583 04:52 07:50 10K30-34F 98/588 4/51 +00:04:55
16/274 JAROKOSKY, HEATHER 340 48:46.786 04:52 07:51 10K35-39F 100/588 3/39 +00:05:00
17/274 TER WOLBEEK, JESSICA 603 49:10.764 04:55 07:55 10K45-49F 103/588 2/12 +00:05:24
18/274 TUCKOVA, HEATHER 619 49:12.406 04:55 07:55 10K50-54F 104/588 1/15 +00:05:26
19/274 CRAFT, TATIANA 194 49:21.006 04:56 07:56 10K25-29F 107/588 2/48 +00:05:35
20/274 NEILSON, LILY 461 49:24.849 04:56 07:57 10K12-15F 108/588 2/6 +00:05:38
21/274 GIESBRECHT, MEGAN 273 49:34.715 04:57 07:59 10K25-29F 111/588 3/48 +00:05:48
22/274 FOISY, JENNIFER 255 50:04.411 05:00 08:03 10K35-39F 118/588 4/39 +00:06:18
23/274 KISH, JELENA 359 50:30.120 05:03 08:07 10K20-24F 125/588 2/39 +00:06:44
24/274 KLOOT, SARA 367 50:30.169 05:03 08:07 10K25-29F 126/588 4/48 +00:06:44
25/274 MATOVICH, ANDREA 419 50:36.402 05:03 08:08 10K45-49F 128/588 3/12 +00:06:50
26/274 MONK, AMY 447 50:43.411 05:04 08:10 10K40-44F 129/588 4/37 +00:06:57
27/274 CURTIS, ALYCIA 199 50:52.996 05:05 08:11 10K30-34F 132/588 5/51 +00:07:07
28/274 MILNE, KEELEY 736 50:58.059 05:05 08:12 10K40-44F 135/588 5/37 +00:07:12
29/274 GALLAGHER, DIANE 264 51:10.013 05:07 08:14 10K50-54F 138/588 2/15 +00:07:24
30/274 SCHULTZ, SHAWNA 553 51:13.011 05:07 08:14 10K25-29F 141/588 5/48 +00:07:27
31/274 FEHR, CADENCE 244 51:28.832 05:08 08:17 10K16-19F 145/588 3/12 +00:07:42
32/274 URBANI, LINDSEY 623 51:31.808 05:09 08:17 10K40-44F 146/588 6/37 +00:07:45
33/274 CLAASSEN, MARJOLEIN 187 51:45.660 05:10 08:20 10K60-64F 151/588 1/4 +00:07:59
34/274 EMERSON, SHERI 235 51:47.816 05:10 08:20 10K50-54F 153/588 3/15 +00:08:01
35/274 THUSI, MARTHA 610 52:00.519 05:12 08:22 10K40-44F 158/588 7/37 +00:08:14
36/274 CAMPMANS, KYLEE 167 52:03.449 05:12 08:22 10K16-19F 159/588 4/12 +00:08:17
37/274 KILLINS, HANNAH 356 52:12.097 05:13 08:24 10K16-19F 162/588 5/12 +00:08:26
38/274 DEGNER, ISABEL 212 52:23.348 05:14 08:26 10K25-29F 164/588 6/48 +00:08:37
39/274 SALTVOLD, JANELLE 534 52:41.745 05:16 08:29 10K20-24F 167/588 3/39 +00:08:55
40/274 STIRLING, ELIZABETH 592 52:47.722 05:16 08:30 10K40-44F 174/588 8/37 +00:09:01
41/274 VALLE, BELLE 626 52:51.448 05:17 08:30 10K30-34F 176/588 6/51 +00:09:05
42/274 CHAUDHARI, MANSI 177 53:04.948 05:18 08:32 10K20-24F 177/588 4/39 +00:09:18
43/274 BUSSIAN, DIXIE 161 53:06.471 05:18 08:33 10K45-49F 178/588 4/12 +00:09:20
44/274 VANDER HEYDEN, MANDY 761 53:11.464 05:19 08:33 10K40-44F 180/588 9/37 +00:09:25
45/274 DE LEEUW, ARIETTE 209 53:12.635 05:19 08:34 10K35-39F 182/588 5/39 +00:09:26
46/274 CAMPMANS, LAURIE 168 53:18.096 05:19 08:34 10K45-49F 184/588 5/12 +00:09:32
47/274 MACLEAN, SOPHIE 413 53:45.167 05:22 08:39 10K20-24F 194/588 5/39 +00:09:59
48/274 VAN HIERDEN, ELINE 729 53:50.392 05:23 08:40 10K30-34F 198/588 7/51 +00:10:04
49/274 EARL, KIMBERLY 232 53:54.964 05:23 08:40 10K40-44F 202/588 10/37 +00:10:08
50/274 BEKEOVA, MARTA 275 53:59.768 05:23 08:41 10K40-44F 204/588 11/37 +00:10:13
51/274 FROESE, ANNA 260 54:07.432 05:24 08:42 10K40-44F 206/588 12/37 +00:10:21
52/274 LAING, OLIVIA 773 54:07.808 05:24 08:42 10K12-15F 207/588 3/6 +00:10:21
53/274 ZGURSKI, TAIYA 695 54:08.088 05:24 08:43 10K12-15F 208/588 4/6 +00:10:22
54/274 SHEETS, SARAH 565 54:20.181 05:26 08:44 10K35-39F 214/588 6/39 +00:10:34
55/274 SCHINDELER, SUSAN 548 54:29.064 05:26 08:46 10K50-54F 217/588 4/15 +00:10:43
56/274 NEILSON, MIA 462 54:39.729 05:27 08:48 10K16-19F 220/588 6/12 +00:10:53
57/274 DOMES, LIESL 776 54:44.393 05:28 08:48 10K16-19F 221/588 7/12 +00:10:58
58/274 ROSHER, JORDYNN 530 54:45.400 05:28 08:49 10K20-24F 222/588 6/39 +00:10:59
59/274 BOYLE, NICOLE 146 54:46.784 05:28 08:49 10K30-34F 223/588 8/51 +00:11:00
60/274 SINCLAIR, JASMINE 570 54:49.665 05:28 08:49 10K20-24F 225/588 7/39 +00:11:03
61/274 DEAN, ELLEE 210 54:50.721 05:29 08:49 10K20-24F 226/588 8/39 +00:11:04
62/274 HALMRAST, ASHTIN 299 54:58.408 05:29 08:51 10K30-34F 232/588 9/51 +00:11:12
63/274 GRAHAM, TAELYNN 285 55:11.017 05:31 08:53 10K30-34F 236/588 10/51 +00:11:25
64/274 GOMERY, JAIMIE 277 55:23.908 05:32 08:55 10K20-24F 239/588 9/39 +00:11:37
65/274 RANDELL, MACKENZIE 511 55:27.612 05:32 08:55 10K20-24F 242/588 10/39 +00:11:41
66/274 HAGGETT, STEPHANIE 297 55:40.550 05:34 08:57 10K35-39F 243/588 7/39 +00:11:54
67/274 ARMSTRONG, KIRA 121 55:45.307 05:34 08:58 10K20-24F 244/588 11/39 +00:11:59
68/274 LANE, ERIN 383 55:54.118 05:35 09:00 10K40-44F 246/588 13/37 +00:12:08
69/274 VONKEMAN, JEANETTE 647 55:55.267 05:35 09:00 10K50-54F 247/588 5/15 +00:12:09
70/274 NITSCHELM, JENNIFER 721 55:57.658 05:35 09:00 10K50-54F 248/588 6/15 +00:12:11
71/274 DE GROOT, ANDREA 206 56:26.720 05:38 09:05 10K25-29F 254/588 7/48 +00:12:40
72/274 VALENTINE, DESHANN 625 56:29.040 05:38 09:05 10K25-29F 256/588 8/48 +00:12:43
73/274 METZLER, CATHY 720 57:01.806 05:42 09:11 10K55-59F 264/588 1/4 +00:13:15
74/274 SHIMODA, CARLEY 566 57:07.148 05:42 09:11 10K30-34F 267/588 11/51 +00:13:21
75/274 NILSSON, JENNA 468 57:12.774 05:43 09:12 10K20-24F 270/588 12/39 +00:13:26
76/274 KOENNER, MARTYNA 369 57:15.353 05:43 09:13 10K25-29F 271/588 9/48 +00:13:29
77/274 DRAIN, CAILIN 224 57:17.367 05:43 09:13 10K25-29F 273/588 10/48 +00:13:31
78/274 WEST, GRAYSEE 661 57:34.523 05:45 09:16 10K25-29F 275/588 11/48 +00:13:48
79/274 HOPPINS, EMMA 329 57:41.789 05:46 09:17 10K20-24F 278/588 13/39 +00:13:55
80/274 WENDORFF, ALICIA 657 57:43.007 05:46 09:17 10K45-49F 279/588 6/12 +00:13:57
81/274 SALA, CLAIRE 532 57:50.062 05:47 09:18 10K40-44F 282/588 14/37 +00:14:04
82/274 ADEMA, EMILY 103 57:51.656 05:47 09:19 10K35-39F 284/588 8/39 +00:14:05
83/274 SECRETAN, KOLBEE 556 57:55.547 05:47 09:19 10K25-29F 286/588 12/48 +00:14:09
84/274 GRAHAM, DOROTHY 713 58:11.086 05:49 09:22 10K30-34F 291/588 12/51 +00:14:25
85/274 TOWNLEY, JULIA 617 58:12.750 05:49 09:22 10K20-24F 292/588 14/39 +00:14:26
86/274 MATTHEWS, AMARA 420 58:30.163 05:51 09:25 10K40-44F 296/588 15/37 +00:14:44
87/274 BARNETT, CIANA 130 58:43.711 05:52 09:27 10K40-44F 298/588 16/37 +00:14:57
88/274 STEUDLER, LYNN 588 58:47.859 05:52 09:28 10K35-39F 299/588 9/39 +00:15:01
89/274 SMITH, CORI 578 58:49.640 05:52 09:28 10K40-44F 301/588 17/37 +00:15:03
90/274 TRAN, ARYNNE 618 58:50.578 05:53 09:28 10K40-44F 302/588 18/37 +00:15:04
91/274 JACOBS, MADDISYN 336 58:52.359 05:53 09:28 10K20-24F 305/588 15/39 +00:15:06
92/274 ROBERTS, ALLIE MAE 524 58:54.655 05:53 09:29 10K25-29F 306/588 13/48 +00:15:08
93/274 SLUSAR, HILLARY 576 59:00.774 05:54 09:30 10K30-34F 307/588 13/51 +00:15:14
94/274 HAYWORTH, BREANN 314 59:02.425 05:54 09:30 10K25-29F 308/588 14/48 +00:15:16
95/274 HAYWORTH, SHAYLYNN 316 59:03.399 05:54 09:30 10K25-29F 309/588 15/48 +00:15:17
96/274 COLLINS MCINTYRE, JESSICA 189 59:24.281 05:56 09:33 10K35-39F 314/588 10/39 +00:15:38
97/274 WILDE, TINA 676 59:25.945 05:56 09:34 10K35-39F 315/588 11/39 +00:15:39
98/274 STEEVES, BRITTNI 587 59:36.468 05:57 09:35 10K25-29F 318/588 16/48 +00:15:50
99/274 PAYNE, CARLEY 487 59:46.921 05:58 09:37 10K35-39F 320/588 12/39 +00:16:00
100/274 THEROUX, DEL 604 59:49.267 05:58 09:37 10K30-34F 322/588 14/51 +00:16:03
101/274 SCAHILL, MARIE-CLAUDE 542 59:49.873 05:58 09:38 10K35-39F 323/588 13/39 +00:16:03
102/274 KLASSEN, RACHEL 364 59:52.381 05:59 09:38 10K25-29F 326/588 17/48 +00:16:06
103/274 DRAGANIUK, JESSICA 223 1:00:17.389 06:01 09:42 10K40-44F 333/588 19/37 +00:16:31
104/274 KOKEMOR, BRITTA 370 1:00:18.209 06:01 09:42 10K40-44F 334/588 20/37 +00:16:32
105/274 RIECHELMANN, TANIS 521 1:00:18.327 06:01 09:42 10K55-59F 335/588 2/4 +00:16:32
106/274 FROSTAD, MARTINA 261 1:00:18.446 06:01 09:42 10K50-54F 336/588 7/15 +00:16:32
107/274 SULEK, LEAH 728 1:00:33.256 06:03 09:45 10K20-24F 339/588 16/39 +00:16:47
108/274 FABIAN, TAMMY 242 1:00:34.779 06:03 09:45 10K40-44F 340/588 21/37 +00:16:48
109/274 GRAY, BETHANY 288 1:00:35.741 06:03 09:45 10K20-24F 342/588 17/39 +00:16:49
110/274 WESTON, WHITNEY 665 1:00:38.695 06:03 09:45 10K30-34F 344/588 15/51 +00:16:52
111/274 GREENAWAY, MELINDA 290 1:00:49.170 06:04 09:47 10K40-44F 345/588 22/37 +00:17:03
112/274 TYKHOSTUP, ULI 621 1:00:55.382 06:05 09:48 10K30-34F 346/588 16/51 +00:17:09
113/274 STEWART, BETHANY 589 1:00:59.951 06:05 09:49 10K25-29F 347/588 18/48 +00:17:13
114/274 POFF, SAMANTHA 499 1:01:00.163 06:06 09:49 10K35-39F 348/588 14/39 +00:17:14
115/274 KLASSEN, BRIANCA 361 1:01:07.826 06:06 09:50 10K12-15F 351/588 5/6 +00:17:21
116/274 KLASSEN, LACEY 363 1:01:07.943 06:06 09:50 10K35-39F 352/588 15/39 +00:17:21
117/274 HARDY, AUBREY 303 1:01:10.218 06:07 09:51 10K16-19F 353/588 8/12 +00:17:24
118/274 REMPEL, CARRIE 520 1:01:12.608 06:07 09:51 10K40-44F 354/588 23/37 +00:17:26
119/274 PREST, EMILY 502 1:01:30.888 06:09 09:54 10K30-34F 355/588 17/51 +00:17:44
120/274 AGUILAR, ANA 105 1:01:39.175 06:09 09:55 10K40-44F 359/588 24/37 +00:17:53
121/274 GURTNER, NADINE 296 1:01:49.358 06:10 09:57 10K35-39F 364/588 16/39 +00:18:03
122/274 KIEFER, BRITTNEY 355 1:01:52.803 06:11 09:57 10K30-34F 365/588 18/51 +00:18:06
123/274 EAGLE BEAR, JAIME 230 1:01:55.640 06:11 09:58 10K45-49F 366/588 7/12 +00:18:09
124/274 BEVANS, MELISSA 138 1:01:55.732 06:11 09:58 10K40-44F 367/588 25/37 +00:18:09
125/274 SHORT, EILISH 567 1:02:02.037 06:12 09:59 10K30-34F 368/588 19/51 +00:18:16
126/274 MUELLER, KONRA 452 1:02:05.177 06:12 09:59 10K40-44F 370/588 26/37 +00:18:19
127/274 KOZINSKI, SELENA 375 1:02:07.334 06:12 10:00 10K25-29F 372/588 19/48 +00:18:21
128/274 SARRASIN, PAIGE 541 1:02:29.224 06:14 10:03 10K35-39F 374/588 17/39 +00:18:43
129/274 VAN DYK, DANIELLE 629 1:02:37.474 06:15 10:05 10K30-34F 375/588 20/51 +00:18:51
130/274 BRUMMELHUIS, LEAH 155 1:02:45.864 06:16 10:06 10K30-34F 377/588 21/51 +00:18:59
131/274 FIELD, LINDSAY 248 1:02:48.910 06:16 10:06 10K45-49F 378/588 8/12 +00:19:02
132/274 KEELING, DIXIE 351 1:02:55.123 06:17 10:07 10K20-24F 381/588 18/39 +00:19:09
133/274 KLIMPKE, KALLYNNE 365 1:02:56.293 06:17 10:08 10K16-19F 382/588 9/12 +00:19:10
134/274 ESPOSITO, STEPHANIE 239 1:02:57.325 06:17 10:08 10K30-34F 384/588 22/51 +00:19:11
135/274 HORNE, TRACY 751 1:03:02.254 06:18 10:09 10K35-39F 385/588 18/39 +00:19:16
136/274 LA, ANGELINA 379 1:03:25.801 06:20 10:12 10K25-29F 388/588 20/48 +00:19:39
137/274 BARNES, KELSI 129 1:03:28.309 06:20 10:13 10K25-29F 389/588 21/48 +00:19:42
138/274 CAMERON, CARISSA 165 1:03:39.605 06:21 10:15 10K35-39F 391/588 19/39 +00:19:53
139/274 MCGINN, ALANNAH MARION 429 1:03:57.934 06:23 10:18 10K30-34F 393/588 23/51 +00:20:11
140/274 JAFFRAY, STEPHANIE 337 1:04:11.152 06:25 10:20 10K50-54F 394/588 8/15 +00:20:25
141/274 WENSMAN, NICOLE 658 1:04:17.316 06:25 10:21 10K25-29F 396/588 22/48 +00:20:31
142/274 AHLSTROM, MEGAN 106 1:04:25.496 06:26 10:22 10K25-29F 397/588 23/48 +00:20:39
143/274 HAMILTON, DALYCE 300 1:04:36.511 06:27 10:24 10K30-34F 399/588 24/51 +00:20:50
144/274 ZAROWNY, TEAGAN 691 1:04:36.582 06:27 10:24 10K30-34F 400/588 25/51 +00:20:50
145/274 LEAVITT, CAYLEE 392 1:04:46.895 06:28 10:25 10K30-34F 403/588 26/51 +00:21:00
146/274 VOLK, VICKEY 646 1:04:48.325 06:28 10:26 10K40-44F 404/588 27/37 +00:21:02
147/274 HAYWARD, MADISON 312 1:05:11.269 06:31 10:29 10K35-39F 407/588 20/39 +00:21:25
148/274 SANDAU, PAYTON 536 1:05:14.597 06:31 10:30 10K20-24F 409/588 19/39 +00:21:28
149/274 FINDLATER, ALLISON 249 1:05:19.354 06:31 10:31 10K30-34F 412/588 27/51 +00:21:33
150/274 LESKO, BROOKLYN 395 1:05:22.917 06:32 10:31 10K16-19F 415/588 10/12 +00:21:36
151/274 CHIPMAN, OLIVIA 181 1:05:25.050 06:32 10:32 10K12-15F 416/588 6/6 +00:21:39
152/274 NEILSON, DIXIE 460 1:05:29.433 06:32 10:32 10K11&UF 418/588 1/1 +00:21:43
153/274 MATTHEWS, MEGAN 422 1:05:32.012 06:33 10:33 10K30-34F 420/588 28/51 +00:21:46
154/274 TIEDJE, KYLIE 611 1:05:38.105 06:33 10:34 10K20-24F 421/588 20/39 +00:21:52
155/274 HALLETT, SHANNON 298 1:05:48.276 06:34 10:35 10K30-34F 422/588 29/51 +00:22:02
156/274 WATT, KEELEY 654 1:05:48.395 06:34 10:35 10K25-29F 423/588 24/48 +00:22:02
157/274 TKACH, RACHEL 612 1:05:48.441 06:34 10:35 10K30-34F 424/588 30/51 +00:22:02
158/274 BRIERE, ALEXANDRA 743 1:05:54.721 06:35 10:36 10K30-34F 427/588 31/51 +00:22:08
159/274 BURBANK, AVA 699 1:05:55.545 06:35 10:36 10K20-24F 428/588 21/39 +00:22:09
160/274 SISSONS, ASHLYN 571 1:06:05.598 06:36 10:38 10K20-24F 429/588 22/39 +00:22:19
161/274 HUVENAARS, MONIQUE 331 1:06:07.706 06:36 10:38 10K50-54F 431/588 9/15 +00:22:21
162/274 MANABAT, SHARLLETTE 416 1:06:19.729 06:37 10:40 10K20-24F 434/588 23/39 +00:22:33
163/274 WHITEQUILLS, GERALDINE 670 1:06:25.987 06:38 10:41 10K60-64F 435/588 2/4 +00:22:39
164/274 FORSYTH, ALEXA 745 1:06:30.979 06:39 10:42 10K40-44F 436/588 28/37 +00:22:44
165/274 SEDGWICK, TIARA 558 1:06:31.401 06:39 10:42 10K30-34F 438/588 32/51 +00:22:45
166/274 WHITE, CHRISTA 668 1:06:37.752 06:39 10:43 10K25-29F 439/588 25/48 +00:22:51
167/274 NAVARRO, ANDREA 455 1:06:46.894 06:40 10:45 10K30-34F 440/588 33/51 +00:23:00
168/274 BARE SHIN BONE, LURLENE 127 1:06:48.769 06:40 10:45 10K40-44F 441/588 29/37 +00:23:02
169/274 ZABORSKA, YULIIA 688 1:07:03.955 06:42 10:47 10K35-39F 443/588 21/39 +00:23:17
170/274 DIBBEN, KELLY 216 1:07:05.877 06:42 10:48 10K35-39F 444/588 22/39 +00:23:19
171/274 CHAMBERLAIN, KRISTEN 174 1:07:09.346 06:42 10:48 10K30-34F 445/588 34/51 +00:23:23
172/274 THIBERT, CAROL 10 1:07:14.525 06:43 10:49 10K70-74F 447/588 1/3 +00:23:28
173/274 PIERSON, SARAH 495 1:07:24.464 06:44 10:51 10K30-34F 448/588 35/51 +00:23:38
174/274 WEVERS, RYLEE 666 1:07:27.440 06:44 10:51 10K20-24F 449/588 24/39 +00:23:41
175/274 BRAUN, AMY 148 1:07:29.549 06:44 10:52 10K35-39F 451/588 23/39 +00:23:43
176/274 ORMSTON, JULIA 478 1:07:30.628 06:45 10:52 10K16-19F 452/588 11/12 +00:23:44
177/274 DOYLE, BRITTANY 222 1:07:32.501 06:45 10:52 10K30-34F 453/588 36/51 +00:23:46
178/274 GORNY, EVA 281 1:07:39.839 06:45 10:53 10K35-39F 454/588 24/39 +00:23:53
179/274 RAY, JENNA 517 1:07:40.283 06:46 10:53 10K35-39F 455/588 25/39 +00:23:54
180/274 ADELMAN, REBECCA 102 1:07:40.916 06:46 10:53 10K40-44F 456/588 30/37 +00:23:54
181/274 WIRTH, COREY 679 1:07:44.267 06:46 10:54 10K40-44F 457/588 31/37 +00:23:58
182/274 ARIK, KATELYN 119 1:08:06.512 06:48 10:58 10K25-29F 459/588 26/48 +00:24:20
183/274 LAURIE, ALYSSA 386 1:08:09.697 06:48 10:58 10K25-29F 460/588 27/48 +00:24:23
184/274 HEMINGTON, BETHANY 320 1:08:20.805 06:50 11:00 10K25-29F 461/588 28/48 +00:24:34
185/274 DUECK, NAOMI 226 1:08:31.564 06:51 11:02 10K45-49F 463/588 9/12 +00:24:45
186/274 MCKENZIE, KAITLIN 433 1:08:37.658 06:51 11:03 10K25-29F 464/588 29/48 +00:24:51
187/274 CRAM, ROBYN 196 1:08:37.893 06:51 11:03 10K25-29F 465/588 30/48 +00:24:51
188/274 KRYWOLT, AMY 108 1:08:56.081 06:53 11:06 10K20-24F 468/588 25/39 +00:25:10
189/274 LECKIE, SHAELYN 753 1:08:56.384 06:53 11:06 10K20-24F 469/588 26/39 +00:25:10
190/274 PLANGER, MELISSA 498 1:08:59.594 06:53 11:06 10K45-49F 470/588 10/12 +00:25:13
191/274 OLSEN, JAYDEN 475 1:09:05.712 06:54 11:07 10K20-24F 473/588 27/39 +00:25:19
192/274 DEMAERE, HOLLY 213 1:09:06.392 06:54 11:07 10K25-29F 474/588 31/48 +00:25:20
193/274 KOCSIS, BRIANNE 752 1:09:06.649 06:54 11:07 10K30-34F 475/588 37/51 +00:25:20
194/274 BELLEFEUILLE, CHANEL 697 1:09:15.064 06:55 11:09 10K30-34F 477/588 38/51 +00:25:29
195/274 VONKEMAN, LARISSA 648 1:09:15.978 06:55 11:09 10K30-34F 478/588 39/51 +00:25:29
196/274 CHRISTENSEN, SHERRY 183 1:09:19.681 06:55 11:09 10K65-69F 479/588 1/3 +00:25:33
197/274 SEXTON, KATRINA 563 1:09:59.477 06:59 11:16 10K45-49F 482/588 11/12 +00:26:13
198/274 DUCHARME-KUSUHARA, LEE-ANNE 225 1:10:00.321 07:00 11:16 10K25-29F 483/588 32/48 +00:26:14
199/274 POWELSON, PEGGY 501 1:10:05.664 07:00 11:17 10K50-54F 484/588 10/15 +00:26:19
200/274 WELLS, CIDNEY 656 1:10:29.500 07:02 11:21 10K30-34F 489/588 40/51 +00:26:43
201/274 SOOP, HANNA 583 1:10:36.883 07:03 11:22 10K30-34F 491/588 41/51 +00:26:50
202/274 PAQUIN, NATHALIE 484 1:10:44.735 07:04 11:23 10K55-59F 492/588 3/4 +00:26:58
203/274 CAHILL, PAIGE 163 1:10:50.125 07:05 11:24 10K30-34F 493/588 42/51 +00:27:04
204/274 AITKEN, MADISON 107 1:10:59.641 07:05 11:25 10K20-24F 494/588 28/39 +00:27:13
205/274 PERRY, TEAGAN 758 1:10:59.852 07:05 11:25 10K25-29F 495/588 33/48 +00:27:13
206/274 KISTENFEGER, JELEA 360 1:11:09.627 07:06 11:27 10K40-44F 496/588 32/37 +00:27:23
207/274 KENNEDY, DEE 354 1:11:23.008 07:08 11:29 10K70-74F 497/588 2/3 +00:27:37
208/274 REIMER, SUSAN 518 1:11:27.860 07:08 11:30 10K50-54F 498/588 11/15 +00:27:41
209/274 VAKA, EMILY 624 1:11:30.859 07:09 11:30 10K25-29F 500/588 34/48 +00:27:44
210/274 LYONS, SHAYE 409 1:11:31.843 07:09 11:31 10K25-29F 501/588 35/48 +00:27:45
211/274 TORRENTO, JADE 616 1:11:44.219 07:10 11:33 10K35-39F 502/588 26/39 +00:27:58
212/274 PRICE, RACHEL 503 1:11:45.157 07:10 11:33 10K35-39F 503/588 27/39 +00:27:59
213/274 GRIGGS, KYLIE 292 1:11:53.311 07:11 11:34 10K35-39F 504/588 28/39 +00:28:07
214/274 BRADLEY, JANET 147 1:11:56.289 07:11 11:35 10K35-39F 505/588 29/39 +00:28:10
215/274 OLESEN, BAILEY 472 1:11:56.851 07:11 11:35 10K35-39F 506/588 30/39 +00:28:10
216/274 DIXON, LISA 218 1:11:59.102 07:11 11:35 10K40-44F 507/588 33/37 +00:28:13
217/274 ENCINAS, JOCELYN 236 1:11:59.922 07:11 11:35 10K40-44F 508/588 34/37 +00:28:13
218/274 MATTHEWS, JULIE 421 1:12:10.071 07:13 11:37 10K65-69F 510/588 2/3 +00:28:24
219/274 PELESKEY, STACY 490 1:12:12.999 07:13 11:37 10K35-39F 511/588 31/39 +00:28:27
220/274 LEACH, MEGAN 390 1:12:14.499 07:13 11:37 10K25-29F 512/588 36/48 +00:28:28
221/274 JOHNSON, HOPE 343 1:12:16.164 07:13 11:38 10K20-24F 513/588 29/39 +00:28:30
222/274 DICK, KIERRA 217 1:12:16.212 07:13 11:38 10K20-24F 514/588 30/39 +00:28:30
223/274 SULLIVAN, KIANNA 595 1:12:24.813 07:14 11:39 10K25-29F 515/588 37/48 +00:28:38
224/274 PACK, COLLEEN 481 1:12:43.561 07:16 11:42 10K50-54F 516/588 12/15 +00:28:57
225/274 NA’A, SHELBY 456 1:13:08.428 07:18 11:46 10K25-29F 518/588 38/48 +00:29:22
226/274 HAYWORTH, BREANNA 315 1:13:15.742 07:19 11:47 10K20-24F 519/588 31/39 +00:29:29
227/274 MCGALE, KAREN 428 1:13:18.952 07:19 11:48 10K55-59F 520/588 4/4 +00:29:32
228/274 RODWELL, KIM 527 1:13:19.421 07:19 11:48 10K35-39F 521/588 32/39 +00:29:33
229/274 CARLSON, ERIN 170 1:13:30.623 07:21 11:50 10K25-29F 523/588 39/48 +00:29:44
230/274 PALMER, MICHELLE 757 1:13:42.061 07:22 11:52 10K30-34F 524/588 43/51 +00:29:56
231/274 DAKIN KUIPER, SIERRA 201 1:13:51.060 07:23 11:53 10K30-34F 525/588 44/51 +00:30:05
232/274 OLSEN, CASSIE 474 1:13:52.476 07:23 11:53 10K25-29F 526/588 40/48 +00:30:06
233/274 BACHYNSKI, YOLANDA 123 1:14:16.678 07:25 11:57 10K60-64F 527/588 3/4 +00:30:30
234/274 BOWLBY, KASSIDY 145 1:14:19.138 07:25 11:58 10K25-29F 528/588 41/48 +00:30:33
235/274 MEGAW, CAROL 438 1:14:21.858 07:26 11:58 10K70-74F 529/588 3/3 +00:30:35
236/274 GODIN, AMANDA 712 1:14:34.679 07:27 12:00 10K25-29F 530/588 42/48 +00:30:48
237/274 KINGSTON, STEPHANIE 358 1:14:49.606 07:28 12:02 10K30-34F 532/588 45/51 +00:31:03
238/274 SCHMEELKE, AMANDA 549 1:14:49.842 07:28 12:03 10K35-39F 533/588 33/39 +00:31:03
239/274 OHLMANN, NIKKI 470 1:15:07.958 07:30 12:05 10K35-39F 536/588 34/39 +00:31:21
240/274 LOVERIDGE, EMMA 402 1:15:25.701 07:32 12:08 10K25-29F 537/588 43/48 +00:31:39
241/274 SCHATZ, NICOLA 546 1:15:31.820 07:33 12:09 10K25-29F 540/588 44/48 +00:31:45
242/274 PERRY, SALINA 491 1:15:32.966 07:33 12:09 10K40-44F 541/588 35/37 +00:31:46
243/274 PETERSEN, SARAH 493 1:15:33.411 07:33 12:10 10K35-39F 542/588 35/39 +00:31:47
244/274 BUREK, JUDY 156 1:15:45.482 07:34 12:11 10K65-69F 543/588 3/3 +00:31:59
245/274 PHILLIPS, JENNICA 724 1:15:48.763 07:34 12:12 10K45-49F 544/588 12/12 +00:32:02
246/274 MACLEAN, KATIE 412 1:15:48.975 07:34 12:12 10K30-34F 545/588 46/51 +00:32:02
247/274 WEST, KRISTIE 664 1:15:49.067 07:34 12:12 10K35-39F 546/588 36/39 +00:32:03
248/274 ARCHER, ANGELA 111 1:15:51.716 07:35 12:12 10K50-54F 547/588 13/15 +00:32:05
249/274 ARCHER, TRINITY 116 1:15:51.856 07:35 12:12 10K20-24F 548/588 32/39 +00:32:05
250/274 BUYDENS, LACI 162 1:16:10.184 07:37 12:15 10K16-19F 549/588 12/12 +00:32:24
251/274 BOHN, MCKENZIE 143 1:16:12.107 07:37 12:16 10K30-34F 551/588 47/51 +00:32:26
252/274 DEE VERZOSA, KEDZ CARMELA 766 1:16:23.777 07:38 12:18 10K20-24F 552/588 33/39 +00:32:37
253/274 SCHREMPF, MEAGHAN 552 1:16:34.817 07:39 12:19 10K25-29F 553/588 45/48 +00:32:48
254/274 SCHREMPF, JUDY 551 1:16:35.028 07:39 12:19 10K60-64F 554/588 4/4 +00:32:49
255/274 DUMONTIER, KYRA 227 1:16:35.848 07:39 12:20 10K25-29F 555/588 46/48 +00:32:49
256/274 GAMMEL, DESTINY 268 1:16:50.028 07:41 12:22 10K20-24F 557/588 34/39 +00:33:04
257/274 VELDBOOM, OLIVIA 643 1:17:37.419 07:45 12:29 10K20-24F 559/588 35/39 +00:33:51
258/274 WEBSTER, LEAH 655 1:17:41.261 07:46 12:30 10K30-34F 560/588 48/51 +00:33:55
259/274 SMITH, MEGAN 581 1:18:17.987 07:49 12:36 10K20-24F 561/588 36/39 +00:34:31
260/274 CURTIS, ALLISAN 198 1:20:54.760 08:05 13:01 10K30-34F 566/588 49/51 +00:37:08
261/274 EVERETT, REBECCA 240 1:21:05.541 08:06 13:03 10K30-34F 569/588 50/51 +00:37:19
262/274 RAUDA, ESMARILIN 514 1:21:20.986 08:08 13:05 10K35-39F 571/588 37/39 +00:37:34
263/274 LOSEY, LEAHN 399 1:22:36.547 08:15 13:18 10K50-54F 572/588 14/15 +00:38:50
264/274 ROW, TRINITY 531 1:22:47.774 08:16 13:19 10K20-24F 573/588 37/39 +00:39:01
265/274 BASA, JENNY 133 1:23:06.500 08:18 13:22 10K40-44F 574/588 36/37 +00:39:20
266/274 VAN GUNST, SARAH 631 1:25:23.724 08:32 13:45 10K35-39F 575/588 38/39 +00:41:37
267/274 WEST, AMY 659 1:25:23.795 08:32 13:45 10K35-39F 576/588 39/39 +00:41:37
268/274 WALDNER, JADA 762 1:25:50.466 08:35 13:49 10K20-24F 577/588 38/39 +00:42:04
269/274 HEGER, MARILYN 750 1:25:55.669 08:35 13:50 10K20-24F 578/588 39/39 +00:42:09
270/274 THOMAS, KRYSTY 608 1:26:21.614 08:38 13:54 10K40-44F 579/588 37/37 +00:42:35
271/274 MANABAT, JAM ELIZE 415 1:28:13.761 08:49 14:12 10K25-29F 580/588 47/48 +00:44:27
272/274 APPERLOO, LUCRETIA 114 1:29:49.503 08:58 14:27 10K50-54F 582/588 15/15 +00:46:03
273/274 GRIDLEY, YUKI 291 1:31:38.601 09:09 14:45 10K30-34F 584/588 51/51 +00:47:52
274/274 ARCAND, HAILEY 115 1:38:07.212 09:48 15:48 10K25-29F 587/588 48/48 +00:54:21
Male 313 Finishers
Gen/Pl Name Bib# Time Pace/K Pace/M Cat OA/Pl Cat/Pl Offset
1/313 KELLY, DANIEL 716 33:42.930 03:22 05:25 10K30-34M 1/588 1/57 +00:00:00
2/313 KANGOGO, KIP 715 34:59.757 03:29 05:38 10K45-49M 2/588 1/20 +00:01:16
3/313 ARMSTRONG, JARED 120 35:13.773 03:31 05:40 10K25-29M 3/588 1/48 +00:01:30
4/313 GRASMEYER, ETHAN 287 35:13.865 03:31 05:40 10K20-24M 4/588 1/48 +00:01:30
5/313 BROWN, DYLAN 153 35:25.772 03:32 05:42 10K30-34M 5/588 2/57 +00:01:42
6/313 VANDENHOEK, CONNER 639 36:07.092 03:36 05:48 10K20-24M 6/588 2/48 +00:02:24
7/313 BEVANS, BLAKE 137 36:35.849 03:39 05:53 10K25-29M 7/588 2/48 +00:02:52
8/313 BOMHOF, MARC 144 37:05.380 03:42 05:58 10K40-44M 8/588 1/36 +00:03:22
9/313 MIDDEL, BRENDAN 443 39:32.612 03:57 06:22 10K25-29M 9/588 3/48 +00:05:49
10/313 ANDERSEN, SHANE 739 39:46.769 03:58 06:24 10K55-59M 10/588 1/8 +00:06:03
11/313 KANGOGO, ED 350 39:57.784 03:59 06:26 10K35-39M 11/588 1/36 +00:06:14
12/313 HASLAM, KADE 310 40:03.596 04:00 06:27 10K12-15M 12/588 1/13 +00:06:20
13/313 KLOHN, CHAD 366 40:17.353 04:01 06:29 10K40-44M 13/588 2/36 +00:06:34
14/313 VANDERPLAS, ASHER 641 40:17.755 04:01 06:29 10K16-19M 14/588 1/19 +00:06:34
15/313 HARTERY, KEEGAN 307 40:18.291 04:01 06:29 10K25-29M 15/588 4/48 +00:06:35
16/313 MCKINNON, LINCOLN 434 40:20.448 04:02 06:29 10K25-29M 16/588 5/48 +00:06:37
17/313 CHABOT, CHRIS 700 40:24.970 04:02 06:30 10K40-44M 17/588 3/36 +00:06:42
18/313 CASPER, ROB 172 40:27.433 04:02 06:30 10K40-44M 18/588 4/36 +00:06:44
19/313 FINDLAY, CAM 251 40:40.392 04:04 06:32 10K25-29M 19/588 6/48 +00:06:57
20/313 MEIERHOFER, WASHINGTON 440 40:41.798 04:04 06:33 10K20-24M 20/588 3/48 +00:06:58
21/313 MOHAMED, KAYSAN 446 40:57.010 04:05 06:35 10K20-24M 21/588 4/48 +00:07:14
22/313 PEARCE, LOGAN 488 41:01.838 04:06 06:36 10K30-34M 22/588 3/57 +00:07:18
23/313 BAIRD, BENJAMIN 124 41:04.321 04:06 06:36 10K35-39M 23/588 2/36 +00:07:21
24/313 MCIVER, JORD 754 41:10.111 04:07 06:37 10K40-44M 24/588 5/36 +00:07:27
25/313 SEDGWICK, AUSTIN 726 41:25.394 04:08 06:40 10K30-34M 25/588 4/57 +00:07:42
26/313 RAUDEBAUGH, DALLAS 515 41:33.151 04:09 06:41 10K40-44M 26/588 6/36 +00:07:50
27/313 EISENREICH, BRANDON 233 42:43.321 04:16 06:52 10K25-29M 27/588 7/48 +00:09:00
28/313 ZIEBER, BENNETT 696 42:56.101 04:17 06:54 10K16-19M 28/588 2/19 +00:09:13
29/313 MCQUAID, KELLY 755 42:56.915 04:17 06:54 10K25-29M 29/588 8/48 +00:09:13
30/313 GRANT, RYAN 286 43:22.414 04:20 06:59 10K30-34M 30/588 5/57 +00:09:39
31/313 CROSS CHILD, TARRANT 702 43:50.141 04:23 07:03 10K45-49M 32/588 2/20 +00:10:07
32/313 HAYWARD, MARC 313 43:57.102 04:23 07:04 10K60-64M 33/588 1/6 +00:10:14
33/313 ADEMA, SETH 104 44:05.914 04:24 07:06 10K35-39M 35/588 3/36 +00:10:22
34/313 YANKE, DUSTIN 686 44:11.399 04:25 07:06 10K25-29M 36/588 9/48 +00:10:28
35/313 DAUB, MASON 202 44:24.898 04:26 07:09 10K25-29M 38/588 10/48 +00:10:41
36/313 MCINTYRE, GAVIN 430 44:32.281 04:27 07:10 10K16-19M 39/588 3/19 +00:10:49
37/313 SZOBOTA, LUKE 596 44:42.852 04:28 07:12 10K40-44M 40/588 7/36 +00:10:59
38/313 KWASNY, DOMINIC 377 44:43.016 04:28 07:12 10K16-19M 41/588 4/19 +00:11:00
39/313 GUNDERSON, MORGAN 295 44:43.718 04:28 07:12 10K30-34M 42/588 6/57 +00:11:00
40/313 SANDERS, TANNER 538 44:54.829 04:29 07:13 10K20-24M 44/588 5/48 +00:11:11
41/313 GUNDERSON, DAVID 294 45:06.711 04:30 07:15 10K40-44M 47/588 8/36 +00:11:23
42/313 REID, CHAD 725 45:11.304 04:31 07:16 10K50-54M 48/588 1/10 +00:11:28
43/313 GIESBRECHT, SILAS 274 45:26.875 04:32 07:19 10K25-29M 49/588 11/48 +00:11:43
44/313 OLESEN, TRENT 473 45:34.602 04:33 07:20 10K35-39M 51/588 4/36 +00:11:51
45/313 STIER, TOBY 591 45:39.523 04:33 07:21 10K40-44M 52/588 9/36 +00:11:56
46/313 SHARMA, ADITYA 564 45:42.851 04:34 07:21 10K20-24M 54/588 6/48 +00:11:59
47/313 ISENOR, DAN 333 45:43.765 04:34 07:21 10K35-39M 55/588 5/36 +00:12:00
48/313 HARDY, EVAN 305 45:44.375 04:34 07:21 10K16-19M 56/588 5/19 +00:12:01
49/313 FISHER, JUSTIN 253 45:47.257 04:34 07:22 10K25-29M 57/588 12/48 +00:12:04
50/313 DAWES, BRIAN 205 45:48.898 04:34 07:22 10K40-44M 59/588 10/36 +00:12:05
51/313 ZADNIK, RYAN 689 45:49.695 04:34 07:22 10K25-29M 60/588 13/48 +00:12:06
52/313 FERRER, CESAR 706 45:52.084 04:35 07:23 10K30-34M 61/588 7/57 +00:12:09
53/313 LONGMUIR, VAUGHN 398 46:02.959 04:36 07:24 10K25-29M 63/588 14/48 +00:12:20
54/313 LOW, AARON 405 46:15.710 04:37 07:26 10K45-49M 64/588 3/20 +00:12:32
55/313 NEUFELD, TEDDY 467 46:20.421 04:38 07:27 10K20-24M 67/588 7/48 +00:12:37
56/313 GRAUMANN, WILL 763 46:25.062 04:38 07:28 10K16-19M 68/588 6/19 +00:12:42
57/313 OKRAINEC, MATTHEW 471 46:35.890 04:39 07:30 10K30-34M 69/588 8/57 +00:12:52
58/313 COURT, NOLAN 193 46:46.531 04:40 07:31 10K25-29M 70/588 15/48 +00:13:03
59/313 HELWIG, JOSEPH 319 46:50.585 04:41 07:32 10K60-64M 71/588 2/6 +00:13:07
60/313 LOSEY, RYLAN 400 46:54.148 04:41 07:33 10K30-34M 72/588 9/57 +00:13:11
61/313 BALOG, BLAKE 126 46:54.264 04:41 07:33 10K35-39M 73/588 6/36 +00:13:11
62/313 THOMAS, SOUTHERN 609 46:54.476 04:41 07:33 10K30-34M 74/588 10/57 +00:13:11
63/313 TATA, ILARIO 602 46:55.295 04:41 07:33 10K16-19M 75/588 7/19 +00:13:12
64/313 STEWART, JORDAN 590 46:59.092 04:41 07:33 10K30-34M 76/588 11/57 +00:13:16
65/313 DIBBEN, MITCHEL 342 47:10.858 04:43 07:35 10K40-44M 77/588 11/36 +00:13:27
66/313 WATT, JENS 653 47:15.592 04:43 07:36 10K20-24M 79/588 8/48 +00:13:32
67/313 ROGERS, TAIT 528 47:17.186 04:43 07:36 10K16-19M 80/588 8/19 +00:13:34
68/313 GIBSON, CARTER 749 47:18.568 04:43 07:37 10K16-19M 81/588 9/19 +00:13:35
69/313 REMESZ, VERNON 519 47:24.920 04:44 07:38 10K55-59M 82/588 2/8 +00:13:41
70/313 WHITE COW, JUSTIN 669 47:28.600 04:44 07:38 10K35-39M 83/588 7/36 +00:13:45
71/313 GALLAGHER, OWEN 265 47:29.444 04:44 07:38 10K20-24M 84/588 9/48 +00:13:46
72/313 FOX, CALE 709 47:29.490 04:44 07:38 10K35-39M 85/588 8/36 +00:13:46
73/313 PHILLIPS, ANDY 723 47:30.662 04:45 07:39 10K45-49M 86/588 4/20 +00:13:47
74/313 FATH, MATTHEW 243 47:31.202 04:45 07:39 10K35-39M 87/588 9/36 +00:13:48
75/313 VEENSTRA, MARCEL 642 47:50.491 04:47 07:42 10K25-29M 88/588 16/48 +00:14:07
76/313 EARL, JAREM 231 47:55.904 04:47 07:43 10K20-24M 89/588 10/48 +00:14:12
77/313 CHURKO, EASTON 184 47:58.506 04:47 07:43 10K12-15M 90/588 2/13 +00:14:15
78/313 SLAWSON, ROB 572 48:11.068 04:49 07:45 10K50-54M 91/588 2/10 +00:14:28
79/313 WITTENBORN, BRANDON 681 48:17.819 04:49 07:46 10K30-34M 92/588 12/57 +00:14:34
80/313 GIBSON, ANTHONY 748 48:32.513 04:51 07:49 10K30-34M 94/588 13/57 +00:14:49
81/313 VAN HIENEN, DERRICK 632 48:33.966 04:51 07:49 10K30-34M 95/588 14/57 +00:14:51
82/313 VANDERAEGEN, ALEX 640 48:36.193 04:51 07:49 10K30-34M 96/588 15/57 +00:14:53
83/313 PYLE, LIAM 505 48:44.725 04:52 07:50 10K25-29M 99/588 17/48 +00:15:01
84/313 MCMULLIN, RORY 718 48:48.162 04:52 07:51 10K40-44M 101/588 12/36 +00:15:05
85/313 JONES, PATRICK 345 49:06.849 04:54 07:54 10K35-39M 102/588 10/36 +00:15:23
86/313 BARTON, LUKE 131 49:18.990 04:55 07:56 10K35-39M 105/588 11/36 +00:15:36
87/313 KYJAC-URASAKI, EVIAN 378 49:20.981 04:56 07:56 10K25-29M 106/588 18/48 +00:15:38
88/313 LAURIE, JACKSON 387 49:25.364 04:56 07:57 10K20-24M 109/588 11/48 +00:15:42
89/313 ROOT, WES 529 49:34.692 04:57 07:59 10K25-29M 110/588 19/48 +00:15:51
90/313 DAUB, PARKER 203 49:45.731 04:58 08:00 10K20-24M 112/588 12/48 +00:16:02
91/313 WIKKERINK, TONY 674 49:48.380 04:58 08:01 10K35-39M 113/588 12/36 +00:16:05
92/313 RALPH, AUSTIN 508 49:50.957 04:59 08:01 10K12-15M 114/588 3/13 +00:16:08
93/313 MISTAKEN CHIEF, CHARLES 445 50:03.825 05:00 08:03 10K55-59M 115/588 3/8 +00:16:20
94/313 MORLAND, BEN 450 50:03.988 05:00 08:03 10K35-39M 116/588 13/36 +00:16:21
95/313 CAMPBELL, CRAIG 775 50:04.388 05:00 08:03 10K35-39M 117/588 14/36 +00:16:21
96/313 MCMURTRY, RYAN 436 50:17.980 05:01 08:05 10K20-24M 119/588 13/48 +00:16:35
97/313 NELSON, MARSHALL 465 50:18.004 05:01 08:05 10K12-15M 120/588 4/13 +00:16:35
98/313 CUMMING, NICHOLAS 197 50:22.387 05:02 08:06 10K40-44M 121/588 13/36 +00:16:39
99/313 LEAVITT, BARTON 391 50:24.239 05:02 08:06 10K65-69M 122/588 1/4 +00:16:41
100/313 LIVINGSTONE, JOHN 396 50:24.263 05:02 08:06 10K40-44M 123/588 14/36 +00:16:41
101/313 ROJAS, JUAN 778 50:25.903 05:02 08:07 10K30-34M 124/588 16/57 +00:16:42
102/313 WIGAND, EVAN 672 50:30.543 05:03 08:08 10K12-15M 127/588 5/13 +00:16:47
103/313 KEELING, DYLAN 352 50:45.052 05:04 08:10 10K25-29M 130/588 20/48 +00:17:02
104/313 KADIJK, MARK 349 50:50.184 05:05 08:11 10K50-54M 131/588 3/10 +00:17:07
105/313 ENS, RYLUND 237 50:55.199 05:05 08:11 10K30-34M 133/588 17/57 +00:17:12
106/313 BRIDGEMAN, DON 151 50:56.817 05:05 08:12 10K30-34M 134/588 18/57 +00:17:13
107/313 DEVOY, HAYDEN 215 51:03.778 05:06 08:13 10K20-24M 136/588 14/48 +00:17:20
108/313 BALDWIN, DAN 125 51:05.347 05:06 08:13 10K30-34M 137/588 19/57 +00:17:22
109/313 FURLANICH, SANTIAGO 262 51:12.239 05:07 08:14 10K30-34M 139/588 20/57 +00:17:29
110/313 MALULEKE, OSCAR 414 51:12.988 05:07 08:14 10K30-34M 140/588 21/57 +00:17:30
111/313 SLINGERLAND, RILEY 574 51:21.121 05:08 08:16 10K11&UM 142/588 1/5 +00:17:38
112/313 AREVALO, MICH 118 51:25.691 05:08 08:16 10K20-24M 143/588 15/48 +00:17:42
113/313 GIBSON, RORY 271 51:26.254 05:08 08:16 10K30-34M 144/588 22/57 +00:17:43
114/313 HILL, MASON 325 51:33.333 05:09 08:18 10K20-24M 147/588 16/48 +00:17:50
115/313 LAWSON, PAYTON 389 51:37.246 05:09 08:18 10K20-24M 148/588 17/48 +00:17:54
116/313 ZENTNER, BRAYDEN 731 51:37.832 05:09 08:18 10K30-34M 149/588 23/57 +00:17:54
117/313 SEXTON, ALEX 560 51:45.473 05:10 08:20 10K12-15M 150/588 6/13 +00:18:02
118/313 VAN HIERDEN, JEREMY 633 51:46.780 05:10 08:20 10K30-34M 152/588 24/57 +00:18:03
119/313 FUSTOS, TAMAS 263 51:52.762 05:11 08:21 10K45-49M 154/588 5/20 +00:18:09
120/313 NEILSEN, EVAN 459 51:53.465 05:11 08:21 10K35-39M 155/588 15/36 +00:18:10
121/313 GAINE, CALEB 747 52:00.004 05:12 08:22 10K20-24M 156/588 18/48 +00:18:17
122/313 JOSEPH JUNIOR, GEORGE 346 52:00.473 05:12 08:22 10K20-24M 157/588 19/48 +00:18:17
123/313 MCCARTHY, BRADY 735 52:06.027 05:12 08:23 10K20-24M 160/588 20/48 +00:18:23
124/313 PATTERSON, JUSTIN 485 52:07.081 05:12 08:23 10K25-29M 161/588 21/48 +00:18:24
125/313 DAINARD, OAKLEY 782 52:14.137 05:13 08:24 10K20-24M 163/588 21/48 +00:18:31
126/313 STOROSHCHUK, ROMAN 593 52:24.378 05:14 08:26 10K35-39M 165/588 16/36 +00:18:41
127/313 SLINGERLAND, ELDON 737 52:24.754 05:14 08:26 10K25-29M 166/588 22/48 +00:18:41
128/313 SAMSONOFF, NOAH 535 52:41.964 05:16 08:29 10K20-24M 168/588 22/48 +00:18:59
129/313 DONNELLY, FINN 703 52:43.245 05:16 08:29 10K12-15M 169/588 7/13 +00:19:00
130/313 DONNELLY, MIKE 704 52:43.855 05:16 08:29 10K40-44M 170/588 15/36 +00:19:00
131/313 WOLDEN, MARK 682 52:44.488 05:16 08:29 10K40-44M 171/588 16/36 +00:19:01
132/313 WOLF CHILD, CRAIG 683 52:45.379 05:16 08:29 10K30-34M 172/588 25/57 +00:19:02
133/313 ANDERSON, ERIK 109 52:46.270 05:16 08:29 10K20-24M 173/588 23/48 +00:19:03
134/313 MACINTOSH, CHRISTIAN 410 52:50.465 05:17 08:30 10K35-39M 175/588 17/36 +00:19:07
135/313 WEST, HUNTER 662 53:10.855 05:19 08:33 10K20-24M 179/588 24/48 +00:19:27
136/313 DUURSMA, JUSTIN 228 53:12.145 05:19 08:34 10K30-34M 181/588 26/57 +00:19:29
137/313 JUSKOWIAK, LUKAS 769 53:16.924 05:19 08:34 10K25-29M 183/588 23/48 +00:19:33
138/313 HOOGERDYK, JETHRO 328 53:20.792 05:20 08:35 10K25-29M 185/588 24/48 +00:19:37
139/313 SOUTHERN, ANDREW 727 53:21.870 05:20 08:35 10K30-34M 186/588 27/57 +00:19:38
140/313 DE JONG, PETER 208 53:30.894 05:21 08:37 10K25-29M 187/588 25/48 +00:19:47
141/313 CALE, THERON 164 53:31.034 05:21 08:37 10K16-19M 188/588 10/19 +00:19:48
142/313 RIEMER, NATHANIEL 522 53:32.605 05:21 08:37 10K20-24M 189/588 25/48 +00:19:49
143/313 ZGURSKI, OWEN 693 53:35.163 05:21 08:37 10K20-24M 190/588 26/48 +00:19:52
144/313 CARTER, JIM 171 53:36.542 05:21 08:37 10K70-74M 191/588 1/3 +00:19:53
145/313 PROULX, ALEXANDRE 504 53:38.323 05:21 08:38 10K40-44M 192/588 17/36 +00:19:55
146/313 LAING, CHAD 733 53:38.980 05:21 08:38 10K40-44M 193/588 18/36 +00:19:56
147/313 HOLLINGSWORTH, JAY 327 53:45.425 05:22 08:39 10K30-34M 195/588 28/57 +00:20:02
148/313 BURNS, BRYAN 159 53:46.362 05:22 08:39 10K35-39M 196/588 18/36 +00:20:03
149/313 VAN DYK, MIKE 630 53:47.253 05:22 08:39 10K30-34M 197/588 29/57 +00:20:04
150/313 SLOAN, LEIGH 464 53:51.050 05:23 08:40 10K60-64M 199/588 3/6 +00:20:08
151/313 SLINGERLAND, JEDREK 738 53:53.556 05:23 08:40 10K20-24M 200/588 27/48 +00:20:10
152/313 ZGURSKI, SASHA 694 53:53.979 05:23 08:40 10K40-44M 201/588 19/36 +00:20:11
153/313 MEHLEN, EASTON 439 53:56.978 05:23 08:41 10K16-19M 203/588 11/19 +00:20:14
154/313 LIVINGSTONE, JEFF 480 54:01.267 05:24 08:41 10K45-49M 205/588 6/20 +00:20:18
155/313 VOS, JAMIE 649 54:10.736 05:25 08:43 10K25-29M 209/588 26/48 +00:20:27
156/313 FEHR, BRODY 705 54:12.565 05:25 08:43 10K11&UM 210/588 2/5 +00:20:29
157/313 ANHORN, TATE 112 54:13.220 05:25 08:43 10K20-24M 211/588 28/48 +00:20:30
158/313 BENKOCZI, IAN 770 54:13.502 05:25 08:43 10K16-19M 212/588 12/19 +00:20:30
159/313 WARREN, JARED 652 54:17.182 05:25 08:44 10K35-39M 213/588 19/36 +00:20:34
160/313 WIGTON, ANDREW 673 54:24.682 05:26 08:45 10K30-34M 215/588 30/57 +00:20:41
161/313 DYCK, SEAN 229 54:25.878 05:26 08:45 10K40-44M 216/588 20/36 +00:20:42
162/313 BECHTEL, ROBERT 134 54:30.963 05:27 08:46 10K55-59M 218/588 4/8 +00:20:48
163/313 PAUL, TYLER 486 54:35.814 05:27 08:47 10K45-49M 219/588 7/20 +00:20:52
164/313 TOLMAN, RYLEY 614 54:47.510 05:28 08:49 10K40-44M 224/588 21/36 +00:21:04
165/313 NEIL, KALEB 458 54:51.166 05:29 08:49 10K16-19M 227/588 13/19 +00:21:08
166/313 DEAN, RILEY 211 54:52.150 05:29 08:50 10K20-24M 228/588 29/48 +00:21:09
167/313 SANDUM, TREVOR 540 54:53.205 05:29 08:50 10K30-34M 229/588 31/57 +00:21:10
168/313 TAILFEATHERS, SAWYER 760 54:56.019 05:29 08:50 10K11&UM 230/588 3/5 +00:21:13
169/313 MCPHEE, CHRIS 719 54:56.511 05:29 08:50 10K35-39M 231/588 20/36 +00:21:13
170/313 SPENCER, GERALD 585 55:03.260 05:30 08:51 10K12-15M 233/588 8/13 +00:21:20
171/313 PIPER, DUANE 496 55:05.885 05:30 08:52 10K40-44M 234/588 22/36 +00:21:22
172/313 BARIL, BRIGHAM 128 55:05.887 05:30 08:52 10K16-19M 235/588 14/19 +00:21:22
173/313 KYJAC-URASAKI, SKYY 771 55:15.048 05:31 08:53 10K16-19M 237/588 15/19 +00:21:32
174/313 WADSWORTH, OSAYGE 513 55:15.399 05:31 08:53 10K16-19M 238/588 16/19 +00:21:32
175/313 SANDUM, MATTHEW 539 55:25.690 05:32 08:55 10K25-29M 240/588 27/48 +00:21:42
176/313 LANCASTER, CADEN 382 55:26.298 05:32 08:55 10K20-24M 241/588 30/48 +00:21:43
177/313 FORTIER, JOEL 708 55:51.094 05:35 08:59 10K20-24M 245/588 31/48 +00:22:08
178/313 LAW, HOUSTON 734 56:03.587 05:36 09:01 10K20-24M 249/588 32/48 +00:22:20
179/313 GOUGH, BRADLEY 283 56:04.220 05:36 09:01 10K40-44M 250/588 23/36 +00:22:21
180/313 LEGGAT, SCOTT 393 56:06.378 05:36 09:02 10K50-54M 251/588 4/10 +00:22:23
181/313 PROVOST, LEONARD 783 56:16.266 05:37 09:03 10K40-44M 252/588 24/36 +00:22:33
182/313 HANSEN, LORIN 301 56:26.320 05:38 09:05 10K20-24M 253/588 33/48 +00:22:43
183/313 MCNAB, RYAN 437 56:27.798 05:38 09:05 10K40-44M 255/588 25/36 +00:22:44
184/313 FOURNIER, VINCENT 256 56:31.196 05:39 09:06 10K45-49M 257/588 8/20 +00:22:48
185/313 HAVINGA, MYLES 311 56:32.365 05:39 09:06 10K35-39M 258/588 21/36 +00:22:49
186/313 MARTINEZ, JOSEPH 418 56:32.861 05:39 09:06 10K30-34M 259/588 32/57 +00:22:49
187/313 GOMEZ, ALBERT 278 56:33.212 05:39 09:06 10K35-39M 260/588 22/36 +00:22:50
188/313 LANE, JALEN 384 56:44.109 05:40 09:08 10K25-29M 261/588 28/48 +00:23:01
189/313 BREMER, JASON 150 56:46.196 05:40 09:08 10K30-34M 262/588 33/57 +00:23:03
190/313 KLASSEN, BENJAMIN 732 57:01.196 05:42 09:10 10K30-34M 263/588 34/57 +00:23:18
191/313 HUVENAARS, PAUL 332 57:02.204 05:42 09:11 10K55-59M 265/588 5/8 +00:23:19
192/313 VELAZQUEZ, DAVID 772 57:04.947 05:42 09:11 10K20-24M 266/588 34/48 +00:23:22
193/313 HEUVEN, RYAN 324 57:11.814 05:43 09:12 10K30-34M 268/588 35/57 +00:23:28
194/313 VAN DER EYK, CONRAD 628 57:12.728 05:43 09:12 10K30-34M 269/588 36/57 +00:23:29
195/313 CIESLAK, KAMIL 186 57:15.938 05:43 09:13 10K25-29M 272/588 29/48 +00:23:33
196/313 DOHERTY, QUIN 220 57:24.398 05:44 09:14 10K16-19M 274/588 17/19 +00:23:41
197/313 WEST, JAXON 663 57:35.063 05:45 09:16 10K20-24M 276/588 35/48 +00:23:52
198/313 FRIESEN, LANCE 259 57:39.634 05:45 09:17 10K35-39M 277/588 23/36 +00:23:56
199/313 GEIGER, MARK 269 57:44.554 05:46 09:17 10K35-39M 280/588 24/36 +00:24:01
200/313 CHURKO, TYREL 185 57:47.508 05:46 09:18 10K40-44M 281/588 26/36 +00:24:04
201/313 CASILI, JULIUS 348 57:50.742 05:47 09:18 10K40-44M 283/588 27/36 +00:24:07
202/313 ONE OWL, DANIEL 477 57:52.383 05:47 09:19 10K30-34M 285/588 37/57 +00:24:09
203/313 ARCHIBALD, BRENDAN 117 58:02.648 05:48 09:20 10K30-34M 287/588 38/57 +00:24:19
204/313 SECRETAN, COLEMAN 555 58:03.656 05:48 09:20 10K25-29M 288/588 30/48 +00:24:20
205/313 LOVERIDGE, LEE 403 58:09.257 05:48 09:21 10K50-54M 289/588 5/10 +00:24:26
206/313 TORRES, SANTIAGO 779 58:09.985 05:48 09:21 10K35-39M 290/588 25/36 +00:24:27
207/313 DENBOK, TRISTAN 214 58:14.929 05:49 09:22 10K16-19M 293/588 18/19 +00:24:31
208/313 MORANTE, WYNTON 449 58:29.906 05:50 09:25 10K12-15M 294/588 9/13 +00:24:46
209/313 TURNER, JASON 620 58:30.094 05:51 09:25 10K40-44M 295/588 28/36 +00:24:47
210/313 MCLAREN, RILEY 777 58:34.382 05:51 09:25 10K40-44M 297/588 29/36 +00:24:51
211/313 ROBERTS, DILLON 525 58:49.101 05:52 09:28 10K25-29M 300/588 31/48 +00:25:06
212/313 CLARKE, HENRY 188 58:50.648 05:53 09:28 10K25-29M 303/588 32/48 +00:25:07
213/313 SEXTON, BRIAN 561 58:51.327 05:53 09:28 10K45-49M 304/588 9/20 +00:25:08
214/313 GROTEN, JOSH 293 59:05.672 05:54 09:30 10K60-64M 310/588 4/6 +00:25:22
215/313 THIBODEAU, MARK 606 59:19.827 05:55 09:33 10K35-39M 311/588 26/36 +00:25:36
216/313 VANDEN ELZEN, CORY 638 59:20.086 05:56 09:33 10K50-54M 312/588 6/10 +00:25:37
217/313 SEXTON, CONNOR 562 59:22.803 05:56 09:33 10K12-15M 313/588 10/13 +00:25:39
218/313 PAHULJE, STEFAN 483 59:31.734 05:57 09:35 10K30-34M 316/588 39/57 +00:25:48
219/313 CHATTERTON, MATTHEW 175 59:34.734 05:57 09:35 10K30-34M 317/588 40/57 +00:25:51
220/313 RANDLE, LARRY 512 59:43.639 05:58 09:37 10K60-64M 319/588 5/6 +00:26:00
221/313 GALLANT, DYLAN 266 59:47.625 05:58 09:37 10K16-19M 321/588 19/19 +00:26:04
222/313 FERRI, AARON 247 59:51.305 05:59 09:38 10K30-34M 324/588 41/57 +00:26:08
223/313 CHALMET, WIM 173 59:52.115 05:59 09:38 10K50-54M 325/588 7/10 +00:26:09
224/313 KLASSEN, JASON 362 59:52.639 05:59 09:38 10K30-34M 327/588 42/57 +00:26:09
225/313 WALDNER, TRENT 650 59:54.444 05:59 09:38 10K30-34M 328/588 43/57 +00:26:11
226/313 THOMPSON, JACK 781 1:00:04.920 06:00 09:40 10K20-24M 329/588 36/48 +00:26:21
227/313 FEHR, CORNELIO 245 1:00:11.554 06:01 09:41 10K35-39M 330/588 27/36 +00:26:28
228/313 SALER, NIKO 533 1:00:12.186 06:01 09:41 10K30-34M 331/588 44/57 +00:26:29
229/313 WISE, ZACH 680 1:00:16.078 06:01 09:42 10K20-24M 332/588 37/48 +00:26:33
230/313 BERGERON, KEVIN 136 1:00:22.592 06:02 09:43 10K35-39M 337/588 28/36 +00:26:39
231/313 NALDER, WYATT 453 1:00:27.632 06:02 09:44 10K20-24M 338/588 38/48 +00:26:44
232/313 LUDDU, JASON 408 1:00:34.804 06:03 09:45 10K20-24M 341/588 39/48 +00:26:51
233/313 RADKE, ETHAN 506 1:00:37.428 06:03 09:45 10K25-29M 343/588 33/48 +00:26:54
234/313 VISSER, DAVID 645 1:01:04.709 06:06 09:50 10K30-34M 349/588 45/57 +00:27:21
235/313 D'ANDREA, NICHOLAS 200 1:01:05.413 06:06 09:50 10K45-49M 350/588 10/20 +00:27:22
236/313 TAILFEATHERS, HUDSON 759 1:01:34.966 06:09 09:55 10K12-15M 356/588 11/13 +00:27:52
237/313 WILLMS, MICHAEL 678 1:01:35.062 06:09 09:55 10K50-54M 357/588 8/10 +00:27:52
238/313 AGUILAR, IVAN 334 1:01:38.623 06:09 09:55 10K45-49M 358/588 11/20 +00:27:55
239/313 PAGE, MICHAEL 756 1:01:42.888 06:10 09:56 10K30-34M 360/588 46/57 +00:27:59
240/313 PIERSON, AZOTH 494 1:01:44.812 06:10 09:56 10K11&UM 361/588 4/5 +00:28:01
241/313 WILDE, HENRY 675 1:01:46.523 06:10 09:56 10K12-15M 362/588 12/13 +00:28:03
242/313 GALLANT, NOLAN 267 1:01:46.685 06:10 09:56 10K12-15M 363/588 13/13 +00:28:03
243/313 BROWN, PORTER 154 1:02:03.044 06:12 09:59 10K25-29M 369/588 34/48 +00:28:20
244/313 JACKSON, BRIAN 335 1:02:06.044 06:12 10:00 10K45-49M 371/588 12/20 +00:28:23
245/313 LAWRENCE, SCOTT 388 1:02:28.334 06:14 10:03 10K35-39M 373/588 29/36 +00:28:45
246/313 GOOD STRIKER, JADEN 280 1:02:41.598 06:16 10:05 10K25-29M 376/588 35/48 +00:28:58
247/313 BAGELIS, DANIILS 740 1:02:49.357 06:16 10:06 10K20-24M 379/588 40/48 +00:29:06
248/313 DONOVAN, ANDREW 221 1:02:52.778 06:17 10:07 10K40-44M 380/588 30/36 +00:29:09
249/313 HARTLEY, JON 308 1:02:56.951 06:17 10:08 10K45-49M 383/588 13/20 +00:29:14
250/313 SPEARCHIEF-MORRIS, JULIAN 584 1:03:24.514 06:20 10:12 10K35-39M 386/588 30/36 +00:29:41
251/313 AUSTIE, JOHN 122 1:03:25.661 06:20 10:12 10K55-59M 387/588 6/8 +00:29:42
252/313 SLINGERLAND, DARCY 573 1:03:32.996 06:21 10:14 10K30-34M 390/588 47/57 +00:29:50
253/313 LOVERIDGE, PAUL 404 1:03:48.444 06:22 10:16 10K25-29M 392/588 36/48 +00:30:05
254/313 FISHER, GRAHAM 707 1:04:13.381 06:25 10:20 10K40-44M 395/588 31/36 +00:30:30
255/313 SLUSAR, TAYLOR 577 1:04:29.223 06:26 10:23 10K30-34M 398/588 48/57 +00:30:46
256/313 LAM, ALAN 380 1:04:40.871 06:28 10:24 10K50-54M 401/588 9/10 +00:30:57
257/313 TOLES, ZACH 613 1:04:44.058 06:28 10:25 10K20-24M 402/588 41/48 +00:31:01
258/313 DEWACHT, TIE 780 1:05:02.363 06:30 10:28 10K20-24M 405/588 42/48 +00:31:19
259/313 WIEBE, TYSON 671 1:05:10.918 06:31 10:29 10K40-44M 406/588 32/36 +00:31:27
260/313 WEST, ERIC 660 1:05:14.362 06:31 10:30 10K25-29M 408/588 37/48 +00:31:31
261/313 HAYWORTH, BRANDON 774 1:05:19.185 06:31 10:31 10K25-29M 410/588 38/48 +00:31:36
262/313 FINDLATER, DEVIN 250 1:05:19.307 06:31 10:31 10K30-34M 411/588 49/57 +00:31:36
263/313 GABRIEL, DEREK 746 1:05:22.176 06:32 10:31 10K35-39M 413/588 31/36 +00:31:39
264/313 NEUFELD, RYLEN 466 1:05:22.591 06:32 10:31 10K20-24M 414/588 43/48 +00:31:39
265/313 SEDGWICK, SHAUN 557 1:05:26.386 06:32 10:32 10K35-39M 417/588 32/36 +00:31:43
266/313 NEILSON, SCOTT 463 1:05:31.753 06:33 10:33 10K45-49M 419/588 14/20 +00:31:48
267/313 MCBEATH, KEVIN 424 1:05:52.144 06:35 10:36 10K40-44M 425/588 33/36 +00:32:09
268/313 EMSLIE, CHRISTOPHER 744 1:05:54.417 06:35 10:36 10K30-34M 426/588 50/57 +00:32:11
269/313 HENNIG, JONAH 321 1:06:05.667 06:36 10:38 10K20-24M 430/588 44/48 +00:32:22
270/313 GRAHAM, JACOB 284 1:06:12.605 06:37 10:39 10K30-34M 432/588 51/57 +00:32:29
271/313 LARSON, PATRICK 385 1:06:16.448 06:37 10:40 10K25-29M 433/588 39/48 +00:32:33
272/313 KOENEN, ERIC 368 1:06:31.074 06:39 10:42 10K30-34M 437/588 52/57 +00:32:48
273/313 THIESSEN, SETH 607 1:07:00.112 06:42 10:47 10K25-29M 442/588 40/48 +00:33:17
274/313 BURTON, KELVIN 160 1:07:14.175 06:43 10:49 10K55-59M 446/588 7/8 +00:33:31
275/313 BRAUN, TYLER 149 1:07:29.384 06:44 10:52 10K40-44M 450/588 34/36 +00:33:46
276/313 HECKER, TAYLOR 317 1:07:50.244 06:47 10:55 10K35-39M 458/588 33/36 +00:34:07
277/313 CANNING, NICHOLAS 169 1:08:20.994 06:50 11:00 10K30-34M 462/588 53/57 +00:34:38
278/313 CRAIG, JOSHUA 195 1:08:42.557 06:52 11:03 10K25-29M 466/588 41/48 +00:34:59
279/313 KLASSEN, LES 717 1:08:43.634 06:52 11:04 10K50-54M 467/588 10/10 +00:35:00
280/313 GREEN, JONATHAN 289 1:09:04.986 06:54 11:07 10K35-39M 471/588 34/36 +00:35:22
281/313 SMITH, LEVI 580 1:09:05.712 06:54 11:07 10K20-24M 472/588 45/48 +00:35:22
282/313 CHATTERTON, THOMAS 767 1:09:08.243 06:54 11:07 10K11&UM 476/588 5/5 +00:35:25
283/313 GOOD EAGLE, LJ 279 1:09:28.868 06:56 11:11 10K45-49M 480/588 15/20 +00:35:45
284/313 BOEHM, NORBERT 141 1:09:58.047 06:59 11:16 10K70-74M 481/588 2/3 +00:36:15
285/313 NYATEPE-COO, EFOE 469 1:10:17.876 07:01 11:19 10K30-34M 485/588 54/57 +00:36:34
286/313 LOUIE, ERIC 401 1:10:19.985 07:01 11:19 10K20-24M 486/588 46/48 +00:36:37
287/313 SCHAAF, NOLAN 543 1:10:25.750 07:02 11:20 10K45-49M 487/588 16/20 +00:36:42
288/313 MCKAY, LANCE 431 1:10:25.984 07:02 11:20 10K45-49M 488/588 17/20 +00:36:43
289/313 MAZEROLLE, KEVIN 423 1:10:32.572 07:03 11:21 10K45-49M 490/588 18/20 +00:36:49
290/313 BROADBENT, GREGORY 152 1:11:28.961 07:08 11:30 10K55-59M 499/588 8/8 +00:37:46
291/313 KOOPMANS, GEORGE 373 1:12:06.179 07:12 11:36 10K60-64M 509/588 6/6 +00:38:23
292/313 PEDERSEN, DEAN 489 1:12:59.500 07:17 11:45 10K25-29M 517/588 42/48 +00:39:16
293/313 BOEHMER, KATLIN 142 1:13:19.537 07:19 11:48 10K35-39M 522/588 35/36 +00:39:36
294/313 BUNDGARD, ROWAN 698 1:14:38.946 07:27 12:01 10K25-29M 531/588 43/48 +00:40:56
295/313 MELLAART, RICHARD 441 1:14:50.709 07:29 12:03 10K30-34M 534/588 55/57 +00:41:07
296/313 RIST, JOSH 347 1:15:07.818 07:30 12:05 10K20-24M 535/588 47/48 +00:41:24
297/313 JIMENO, LESLY 341 1:15:26.217 07:32 12:08 10K35-39M 538/588 36/36 +00:41:43
298/313 ERICKSON, RYAN 238 1:15:31.747 07:33 12:09 10K30-34M 539/588 56/57 +00:41:48
299/313 SCHREMPF, DANIEL 550 1:16:11.498 07:37 12:16 10K30-34M 550/588 57/57 +00:42:28
300/313 BENNETT, WYATT 135 1:16:37.114 07:39 12:20 10K25-29M 556/588 44/48 +00:42:54
301/313 FRANZ, DAVID 258 1:17:33.317 07:45 12:29 10K40-44M 558/588 35/36 +00:43:50
302/313 GUNDERSON, RANDY 714 1:18:42.995 07:52 12:40 10K65-69M 562/588 2/4 +00:45:00
303/313 GOLDSTEIN, TOBIAH 276 1:19:23.332 07:56 12:47 10K45-49M 563/588 19/20 +00:45:40
304/313 NASH, GEOFF 454 1:19:25.089 07:56 12:47 10K70-74M 564/588 3/3 +00:45:42
305/313 BISHOP, BENJAMIN 139 1:20:28.932 08:02 12:57 10K20-24M 565/588 48/48 +00:46:46
306/313 STAEHR, BRADLEY 586 1:20:57.103 08:05 13:02 10K45-49M 567/588 20/20 +00:47:14
307/313 WRIGHT, ROYCE 684 1:21:01.087 08:06 13:02 10K25-29M 568/588 45/48 +00:47:18
308/313 JANVIER, KEN 339 1:21:11.588 08:07 13:04 10K25-29M 570/588 46/48 +00:47:28
309/313 PHELAN, JAMES 722 1:29:09.986 08:54 14:21 10K40-44M 581/588 36/36 +00:55:27
310/313 APPERLOO, DEVON 113 1:29:50.790 08:59 14:28 10K25-29M 583/588 47/48 +00:56:07
311/313 CHATTERTON, RICHARD 176 1:34:32.644 09:27 15:13 10K65-69M 585/588 3/4 +01:00:49
312/313 PONCE, EDGAR 500 1:34:51.769 09:29 15:16 10K25-29M 586/588 48/48 +01:01:08
313/313 BARE SHIN BONE, JOHN 741 1:45:49.627 10:34 17:02 10K65-69M 588/588 4/4 +01:12:06
Unspecified 1 Finishers
Gen/Pl Name Bib# Time Pace/K Pace/M Cat OA/Pl Cat/Pl Offset
1/1 HARDING, DREW 768 46:17.351 04:37 07:27 10K25-29U 65/588 1/1 +00:00:00